createdAt,value
2023-01-06T09:02:14.728Z,2.75
2023-01-06T09:04:55.254Z,3.47
2023-01-06T09:07:22.594Z,3.17
2023-01-06T09:09:49.970Z,2.13
2023-01-06T09:12:17.353Z,1.63
2023-01-06T09:14:44.755Z,2.20
2023-01-06T09:17:12.145Z,2.13
2023-01-06T09:19:39.505Z,1.95
2023-01-06T09:22:07.274Z,1.45
2023-01-06T09:24:34.673Z,1.60
2023-01-06T09:27:02.058Z,1.40
2023-01-06T09:29:29.445Z,1.48
2023-01-06T09:31:56.778Z,1.38
2023-01-06T09:34:24.160Z,1.52
2023-01-06T09:36:51.491Z,1.10
2023-01-06T09:39:20.120Z,1.10
2023-01-06T09:42:36.895Z,1.30
2023-01-06T09:45:18.261Z,1.17
2023-01-06T09:47:56.194Z,1.30
2023-01-06T09:50:43.973Z,0.80
2023-01-06T09:53:30.583Z,0.50
2023-01-06T09:56:03.095Z,0.82
2023-01-06T09:59:10.670Z,0.40
2023-01-06T10:01:48.758Z,0.50
2023-01-06T10:04:30.962Z,0.30
2023-01-06T10:08:21.518Z,0.17
2023-01-06T10:11:59.588Z,0.20
2023-01-06T10:15:06.617Z,0.35
2023-01-06T10:18:41.518Z,0.20
2023-01-06T10:22:05.611Z,0.50
2023-01-06T10:25:02.881Z,0.60
2023-01-06T10:27:58.504Z,0.65
2023-01-06T10:30:45.752Z,0.32
2023-01-06T10:33:37.476Z,0.60
2023-01-06T10:36:17.186Z,0.38
2023-01-06T10:38:55.685Z,0.20
2023-01-06T10:41:45.744Z,0.30
2023-01-06T10:44:14.075Z,0.28
2023-01-06T10:46:45.266Z,0.50
2023-01-06T10:49:19.401Z,0.20
2023-01-06T10:52:00.641Z,0.20
2023-01-06T10:54:34.200Z,0.20
2023-01-06T10:57:17.964Z,0.13
2023-01-06T11:00:17.415Z,0.30
2023-01-06T11:03:14.284Z,0.68
2023-01-06T11:05:47.312Z,0.50
2023-01-06T11:08:17.007Z,0.73
2023-01-06T11:10:56.323Z,0.20
2023-01-06T11:13:37.089Z,0.30
2023-01-06T11:16:36.952Z,0.20
2023-01-06T11:19:21.536Z,0.60
2023-01-06T11:21:49.076Z,0.30
2023-01-06T11:24:26.989Z,0.57
2023-01-06T11:27:16.190Z,0.50
2023-01-06T11:29:43.633Z,0.90
2023-01-06T11:32:28.625Z,0.77
2023-01-06T11:35:06.521Z,0.70
2023-01-06T11:37:43.389Z,0.47
2023-01-06T11:40:34.216Z,0.63
2023-01-06T11:43:32.652Z,0.60
2023-01-06T11:46:09.232Z,0.50
2023-01-06T11:49:04.003Z,0.70
2023-01-06T11:51:48.959Z,0.77
2023-01-06T11:54:40.536Z,0.70
2023-01-06T11:57:55.970Z,0.47
2023-01-06T12:01:08.231Z,0.60
2023-01-06T12:03:44.977Z,0.60
2023-01-06T12:06:34.568Z,0.50
2023-01-06T12:09:40.718Z,0.43
2023-01-06T12:12:15.834Z,0.40
2023-01-06T12:14:43.223Z,0.45
2023-01-06T12:17:36.051Z,0.15
2023-01-06T12:20:33.442Z,0.20
2023-01-06T12:23:39.834Z,0.32
2023-01-06T12:26:25.254Z,0.20
2023-01-06T12:28:56.273Z,0.17
2023-01-06T12:32:05.459Z,0.50
2023-01-06T12:34:50.325Z,0.25
2023-01-06T12:37:53.586Z,0.30
2023-01-06T12:40:52.632Z,0.20
2023-01-06T12:43:24.776Z,0.30
2023-01-06T12:46:04.932Z,0.20
2023-01-06T12:48:59.332Z,0.30
2023-01-06T12:51:54.556Z,0.50
2023-01-06T12:54:36.498Z,0.20
2023-01-06T12:58:06.362Z,0.50
2023-01-06T13:01:01.544Z,0.47
2023-01-06T13:04:21.184Z,0.35
2023-01-06T13:08:28.412Z,0.50
2023-01-06T13:11:40.250Z,1.02
2023-01-06T13:15:11.817Z,0.30
2023-01-06T13:18:15.204Z,0.50
2023-01-06T13:21:00.624Z,0.47
2023-01-06T13:23:57.124Z,0.32
2023-01-06T13:27:18.902Z,0.30
2023-01-06T13:30:36.191Z,0.20
2023-01-06T13:33:23.582Z,0.50
2023-01-06T13:36:35.096Z,0.50
2023-01-06T13:39:30.713Z,0.70
2023-01-06T13:42:03.981Z,0.40
2023-01-06T13:44:37.387Z,0.60
2023-01-06T13:47:24.471Z,0.32
2023-01-06T13:49:53.033Z,0.40
2023-01-06T13:52:28.915Z,0.30
2023-01-06T13:55:32.729Z,0.43
2023-01-06T13:58:25.764Z,0.63
2023-01-06T14:01:20.792Z,0.30
2023-01-06T14:03:51.576Z,0.77
2023-01-06T14:06:24.967Z,0.50
2023-01-06T14:08:58.574Z,0.40
2023-01-06T14:11:38.849Z,0.40
2023-01-06T14:14:32.885Z,0.43
2023-01-06T14:17:00.455Z,0.50
2023-01-06T14:19:37.986Z,0.52
2023-01-06T14:22:26.236Z,0.50
2023-01-06T14:25:08.647Z,0.50
2023-01-06T14:27:48.054Z,0.50
2023-01-06T14:30:33.758Z,0.43
2023-01-06T14:33:38.225Z,0.45
2023-01-06T14:36:17.539Z,0.50
2023-01-06T14:39:02.402Z,0.57
2023-01-06T14:41:45.556Z,0.60
2023-01-06T14:44:44.225Z,0.60
2023-01-06T14:47:42.671Z,0.73
2023-01-06T14:50:47.467Z,0.70
2023-01-06T14:53:38.875Z,0.73
2023-01-06T14:56:11.363Z,1.00
2023-01-06T14:58:38.735Z,0.75
2023-01-06T15:01:30.876Z,0.85
2023-01-06T15:04:03.169Z,0.80
2023-01-06T15:06:32.349Z,0.80
2023-01-06T15:09:21.047Z,0.80
2023-01-06T15:11:49.351Z,0.80
2023-01-06T15:14:35.291Z,1.00
2023-01-06T15:17:06.796Z,1.48
2023-01-06T15:19:35.745Z,0.68
2023-01-06T15:22:08.750Z,0.68
2023-01-06T15:24:42.894Z,0.80
2023-01-06T15:27:16.560Z,0.77
2023-01-06T15:29:57.251Z,1.00
2023-01-06T15:32:28.107Z,0.90
2023-01-06T15:34:58.107Z,0.90
2023-01-06T15:37:34.750Z,0.90
2023-01-06T15:40:05.212Z,0.85
2023-01-06T15:42:33.037Z,0.80
2023-01-06T15:45:06.746Z,0.90
2023-01-06T15:47:45.813Z,1.00
2023-01-06T15:50:34.200Z,1.00
2023-01-06T15:53:15.960Z,0.80
2023-01-06T15:55:49.081Z,0.98
2023-01-06T15:58:30.507Z,0.80
2023-01-06T16:01:12.014Z,0.82
2023-01-06T16:03:40.100Z,1.40
2023-01-06T16:06:15.460Z,1.15
2023-01-06T16:08:44.189Z,1.13
2023-01-06T16:11:17.339Z,1.05
2023-01-06T16:13:59.036Z,1.20
2023-01-06T16:16:37.922Z,1.35
2023-01-06T16:19:28.145Z,1.02
